createdAt,value
2023-03-16T00:00:15.170Z,35.60
2023-03-16T00:02:45.678Z,33.50
2023-03-16T00:05:16.064Z,73.40
2023-03-16T00:07:57.245Z,42.40
2023-03-16T00:10:27.944Z,37.80
2023-03-16T00:12:57.555Z,39.70
2023-03-16T00:15:26.698Z,35.40
2023-03-16T00:17:58.178Z,34.00
2023-03-16T00:20:29.357Z,33.00
2023-03-16T00:22:59.108Z,35.90
2023-03-16T00:25:33.685Z,36.00
2023-03-16T00:28:05.691Z,26.80
2023-03-16T00:30:38.552Z,26.60
2023-03-16T00:35:50.976Z,25.90
2023-03-16T00:38:26.879Z,24.00
2023-03-16T00:41:04.168Z,24.30
2023-03-16T00:43:41.383Z,22.70
2023-03-16T00:46:14.451Z,29.40
2023-03-16T00:48:49.032Z,32.80
2023-03-16T00:51:23.101Z,28.20
2023-03-16T00:53:57.644Z,28.90
2023-03-16T00:56:27.819Z,32.30
2023-03-16T00:58:58.869Z,33.70
2023-03-16T01:01:27.646Z,31.90
2023-03-16T01:03:58.152Z,31.90
2023-03-16T01:06:28.544Z,34.90
2023-03-16T01:08:59.655Z,30.90
2023-03-16T01:11:29.571Z,30.90
2023-03-16T01:13:59.781Z,31.40
2023-03-16T01:16:29.141Z,33.30
2023-03-16T01:18:58.101Z,31.90
2023-03-16T01:21:29.037Z,31.10
2023-03-16T01:24:01.648Z,29.10
2023-03-16T01:26:30.508Z,27.70
2023-03-16T01:29:07.034Z,31.80
2023-03-16T01:31:35.589Z,34.80
2023-03-16T01:34:04.298Z,35.60
2023-03-16T01:36:42.028Z,32.90
2023-03-16T01:39:12.461Z,41.30
2023-03-16T01:41:51.503Z,33.90
2023-03-16T01:44:23.015Z,37.30
2023-03-16T01:46:54.376Z,45.10
2023-03-16T01:49:33.083Z,39.70
2023-03-16T01:52:08.800Z,40.00
2023-03-16T01:54:53.668Z,36.80
2023-03-16T01:57:25.943Z,36.30
2023-03-16T02:00:11.318Z,37.40
2023-03-16T02:02:56.188Z,35.60
2023-03-16T02:05:44.467Z,32.80
2023-03-16T02:08:17.840Z,36.30
2023-03-16T02:10:54.686Z,29.60
2023-03-16T02:13:25.488Z,33.70
2023-03-16T02:15:56.707Z,31.60
2023-03-16T02:18:26.851Z,30.90
2023-03-16T02:21:06.256Z,30.80
2023-03-16T02:23:37.229Z,35.00
2023-03-16T02:26:40.611Z,39.30
2023-03-16T02:30:04.584Z,40.30
2023-03-16T02:32:47.692Z,41.20
2023-03-16T02:35:19.332Z,36.90
2023-03-16T02:37:52.790Z,33.80
2023-03-16T02:40:34.657Z,37.40
2023-03-16T02:43:12.561Z,39.20
2023-03-16T02:45:55.652Z,35.60
2023-03-16T02:48:43.000Z,40.20
2023-03-16T02:51:19.449Z,42.30
2023-03-16T02:53:49.402Z,41.80
2023-03-16T03:02:58.617Z,39.80
2023-03-16T03:05:30.303Z,44.00
2023-03-16T03:08:02.889Z,43.90
2023-03-16T03:10:32.645Z,43.50
2023-03-16T03:13:03.350Z,45.70
2023-03-16T03:15:39.258Z,49.90
2023-03-16T03:18:12.249Z,44.70
2023-03-16T03:20:43.609Z,48.70
2023-03-16T03:23:15.424Z,40.10
2023-03-16T03:25:44.716Z,38.20
2023-03-16T03:28:16.618Z,38.80
2023-03-16T03:37:26.600Z,47.90
2023-03-16T03:39:53.903Z,41.60
2023-03-16T03:42:25.552Z,32.10
2023-03-16T03:44:55.408Z,36.30
2023-03-16T03:47:23.900Z,34.70
2023-03-16T03:49:55.477Z,36.40
2023-03-16T03:52:23.679Z,37.80
2023-03-16T03:54:52.605Z,37.60
2023-03-16T03:57:23.252Z,37.60
2023-03-16T03:59:51.728Z,38.30
2023-03-16T04:02:40.291Z,38.10
2023-03-16T04:05:17.468Z,36.70
2023-03-16T04:07:48.031Z,37.80
2023-03-16T04:10:16.059Z,38.90
2023-03-16T04:12:49.750Z,39.70
2023-03-16T04:15:22.606Z,53.80
2023-03-16T04:18:07.576Z,41.30
2023-03-16T04:20:40.511Z,33.70
2023-03-16T04:23:10.502Z,36.30
2023-03-16T04:25:39.012Z,33.70
2023-03-16T04:28:07.854Z,34.50
2023-03-16T04:30:43.978Z,37.70
2023-03-16T04:33:22.460Z,40.50
2023-03-16T04:35:51.689Z,35.10
2023-03-16T04:38:24.637Z,35.60
2023-03-16T04:40:58.711Z,42.20
2023-03-16T04:43:36.369Z,44.60
2023-03-16T04:46:17.967Z,45.80
2023-03-16T04:48:46.324Z,45.80
2023-03-16T04:51:14.874Z,43.70
2023-03-16T04:53:48.772Z,41.80
2023-03-16T04:56:26.586Z,41.90
2023-03-16T04:59:00.463Z,65.90
2023-03-16T05:01:34.052Z,65.50
2023-03-16T05:04:06.200Z,61.00
2023-03-16T05:06:36.433Z,47.20
2023-03-16T05:09:08.121Z,52.10
2023-03-16T05:11:40.025Z,31.70
2023-03-16T05:14:10.819Z,31.30
2023-03-16T05:16:55.422Z,35.40
2023-03-16T05:19:25.866Z,40.40
2023-03-16T05:22:00.615Z,38.90
2023-03-16T05:24:36.633Z,35.00
2023-03-16T05:27:09.611Z,39.10
2023-03-16T05:29:38.726Z,40.00
2023-03-16T05:32:09.633Z,46.50
2023-03-16T05:34:43.726Z,41.80
2023-03-16T05:37:30.736Z,39.10
2023-03-16T05:40:13.824Z,37.50
2023-03-16T05:42:53.823Z,33.30
2023-03-16T05:45:25.150Z,29.10
2023-03-16T05:48:06.939Z,36.00
2023-03-16T05:50:53.044Z,39.20
2023-03-16T05:53:29.880Z,41.40
2023-03-16T05:56:27.912Z,34.90
2023-03-16T05:59:00.398Z,52.50
2023-03-16T06:01:30.856Z,41.80
2023-03-16T06:04:08.746Z,40.70
2023-03-16T06:06:46.897Z,43.20
2023-03-16T06:09:30.180Z,46.30
2023-03-16T06:12:03.720Z,40.80
2023-03-16T06:14:40.077Z,44.40
2023-03-16T06:19:53.578Z,50.20
2023-03-16T06:22:25.641Z,47.40
2023-03-16T06:25:15.793Z,53.30
2023-03-16T06:27:58.771Z,41.40
2023-03-16T06:30:38.006Z,30.10
2023-03-16T06:33:13.806Z,26.80
2023-03-16T06:35:50.978Z,23.40
2023-03-16T06:38:43.640Z,26.90
2023-03-16T06:41:38.796Z,25.20
2023-03-16T06:44:14.303Z,23.30
2023-03-16T06:46:56.438Z,28.80
2023-03-16T06:49:30.903Z,26.10
2023-03-16T06:52:10.329Z,26.60
2023-03-16T06:56:56.027Z,25.80
2023-03-16T06:59:29.192Z,26.80
2023-03-16T07:02:05.097Z,28.30
2023-03-16T07:04:37.284Z,26.40
2023-03-16T07:07:06.348Z,29.80
2023-03-16T07:09:41.546Z,30.30
2023-03-16T07:12:13.442Z,26.90
2023-03-16T07:14:57.574Z,27.70
2023-03-16T07:17:29.378Z,27.00
2023-03-16T07:20:04.968Z,23.70
2023-03-16T07:22:44.189Z,18.60
2023-03-16T07:25:39.505Z,24.50
2023-03-16T07:28:41.225Z,19.90
2023-03-16T07:31:12.425Z,19.30
2023-03-16T07:33:50.156Z,19.40
2023-03-16T07:36:54.084Z,18.60
2023-03-16T07:39:28.698Z,15.70
2023-03-16T07:42:06.381Z,16.10
2023-03-16T07:44:57.669Z,17.70
2023-03-16T07:47:38.378Z,15.50
2023-03-16T07:50:41.586Z,15.30
2023-03-16T07:53:19.155Z,18.00
2023-03-16T07:55:57.297Z,17.60
2023-03-16T07:58:28.504Z,17.70
2023-03-16T08:01:01.298Z,24.40
2023-03-16T08:03:34.396Z,21.80
2023-03-16T08:06:10.236Z,20.50
2023-03-16T08:08:46.577Z,21.50
2023-03-16T08:11:29.218Z,22.60
2023-03-16T08:14:00.389Z,24.00
2023-03-16T08:16:47.245Z,22.90
2023-03-16T08:19:22.853Z,26.00
2023-03-16T08:22:01.204Z,19.70
2023-03-16T08:26:49.942Z,21.00
2023-03-16T08:29:19.868Z,8.60
2023-03-16T08:31:50.729Z,11.90
2023-03-16T08:34:31.932Z,8.60
2023-03-16T08:37:04.393Z,10.70
2023-03-16T08:39:35.810Z,9.10
2023-03-16T08:42:09.194Z,11.10
2023-03-16T08:44:44.340Z,8.90
2023-03-16T08:47:16.804Z,9.80
2023-03-16T08:49:46.076Z,10.80
2023-03-16T08:52:18.908Z,13.90
2023-03-16T08:55:02.007Z,11.30
2023-03-16T08:57:34.491Z,10.40
2023-03-16T09:00:12.859Z,9.20
2023-03-16T09:02:46.831Z,21.50
2023-03-16T09:05:19.968Z,10.10
2023-03-16T09:07:49.146Z,9.40
2023-03-16T09:10:24.345Z,11.70
2023-03-16T09:12:57.693Z,8.80
2023-03-16T09:15:30.131Z,9.50
2023-03-16T09:18:04.326Z,9.90
2023-03-16T09:20:35.010Z,12.00
2023-03-16T09:23:08.904Z,11.50
2023-03-16T09:25:38.528Z,13.20
2023-03-16T09:28:13.035Z,14.00
2023-03-16T09:30:44.944Z,11.60
2023-03-16T09:33:14.835Z,11.40
2023-03-16T09:35:52.492Z,14.40
2023-03-16T09:38:23.202Z,9.50
2023-03-16T09:40:59.096Z,10.40
2023-03-16T09:43:37.082Z,13.00
2023-03-16T09:46:18.246Z,13.20
2023-03-16T09:48:51.081Z,13.70
2023-03-16T09:51:52.612Z,14.20
2023-03-16T09:54:29.219Z,16.20
2023-03-16T09:57:00.013Z,11.10
2023-03-16T09:59:34.167Z,11.60
2023-03-16T10:02:34.910Z,12.70
2023-03-16T10:05:16.101Z,12.70
2023-03-16T10:07:59.196Z,14.00
2023-03-16T10:10:50.118Z,13.50
2023-03-16T10:13:48.228Z,14.10
2023-03-16T10:16:52.833Z,14.00
2023-03-16T10:19:32.652Z,12.70
2023-03-16T10:22:08.616Z,12.70
2023-03-16T10:25:30.158Z,14.70
2023-03-16T10:30:37.483Z,11.70
2023-03-16T10:33:24.693Z,13.40
2023-03-16T10:36:15.804Z,13.70
2023-03-16T10:38:55.461Z,12.40
2023-03-16T10:41:39.005Z,14.30
2023-03-16T10:44:30.137Z,10.60
2023-03-16T10:47:05.993Z,13.20
2023-03-16T10:49:44.833Z,14.70
2023-03-16T10:52:40.186Z,12.10
2023-03-16T10:55:32.867Z,11.90
2023-03-16T10:58:07.022Z,20.60
2023-03-16T11:00:37.636Z,18.10
2023-03-16T11:03:27.653Z,21.10
2023-03-16T11:06:02.490Z,12.40
2023-03-16T11:08:36.135Z,17.00
2023-03-16T11:11:10.103Z,13.70
2023-03-16T11:13:46.033Z,12.00
2023-03-16T11:16:37.289Z,13.20
2023-03-16T11:19:26.078Z,12.60
2023-03-16T11:22:20.484Z,18.10
2023-03-16T11:25:15.985Z,13.00
2023-03-16T11:28:13.119Z,14.60
2023-03-16T11:31:18.409Z,16.90
2023-03-16T11:33:49.378Z,12.30
2023-03-16T11:36:56.946Z,30.20
2023-03-16T11:39:40.908Z,13.40
2023-03-16T11:42:39.554Z,11.60
2023-03-16T11:45:37.944Z,11.60
2023-03-16T11:48:38.257Z,13.10
2023-03-16T11:51:28.805Z,11.40
2023-03-16T11:54:07.894Z,12.00
2023-03-16T11:56:38.813Z,12.10
2023-03-16T11:59:26.638Z,14.80
2023-03-16T12:02:07.522Z,12.20
2023-03-16T12:04:45.346Z,14.50
2023-03-16T12:07:29.302Z,13.80
2023-03-16T12:10:20.404Z,14.40
2023-03-16T12:13:18.293Z,12.60
2023-03-16T12:15:51.717Z,16.30
2023-03-16T12:18:38.744Z,15.50
2023-03-16T12:21:36.225Z,12.90
2023-03-16T12:24:11.224Z,13.70
2023-03-16T12:26:42.829Z,13.20
2023-03-16T12:29:37.008Z,13.70
2023-03-16T12:32:34.923Z,12.90
2023-03-16T12:35:22.573Z,12.70
2023-03-16T12:38:23.625Z,14.60
2023-03-16T12:41:29.781Z,15.70
2023-03-16T12:44:06.369Z,14.70
2023-03-16T12:47:14.909Z,13.90
2023-03-16T12:49:47.730Z,15.40
2023-03-16T12:52:17.305Z,16.40
2023-03-16T12:54:52.237Z,13.50
2023-03-16T12:57:38.614Z,13.20
2023-03-16T13:00:10.963Z,13.90
2023-03-16T13:02:48.892Z,16.40
2023-03-16T13:05:32.259Z,15.90
2023-03-16T13:08:10.834Z,17.50
2023-03-16T13:10:40.894Z,17.50
2023-03-16T13:13:15.285Z,17.30
2023-03-16T13:15:47.565Z,19.60
2023-03-16T13:18:22.481Z,18.50
2023-03-16T13:20:55.317Z,24.20
2023-03-16T13:23:30.377Z,21.50
2023-03-16T13:26:06.005Z,23.70
2023-03-16T13:28:37.829Z,23.60
2023-03-16T13:31:20.514Z,27.10
2023-03-16T13:33:49.604Z,30.60
2023-03-16T13:36:28.281Z,27.50
2023-03-16T13:39:19.175Z,25.70
2023-03-16T13:42:18.030Z,28.40
2023-03-16T13:44:56.814Z,31.80
2023-03-16T13:47:28.411Z,33.30
2023-03-16T13:50:00.222Z,34.70
2023-03-16T13:52:34.929Z,31.00
2023-03-16T13:55:20.091Z,31.60
2023-03-16T13:57:49.929Z,32.00
2023-03-16T14:00:25.800Z,30.10
2023-03-16T14:02:59.004Z,34.10
2023-03-16T14:05:36.461Z,33.00
2023-03-16T14:08:18.797Z,32.50
2023-03-16T14:10:48.576Z,32.70
2023-03-16T14:13:34.299Z,35.20
2023-03-16T14:16:18.016Z,33.40
2023-03-16T14:19:02.323Z,32.10
2023-03-16T14:21:34.426Z,35.10
2023-03-16T14:24:06.761Z,35.40
2023-03-16T14:26:47.352Z,31.00
2023-03-16T14:29:33.735Z,31.40
2023-03-16T14:32:02.283Z,32.70
2023-03-16T14:34:44.836Z,29.80
2023-03-16T14:37:16.530Z,29.00
2023-03-16T14:40:07.588Z,32.60
2023-03-16T14:42:38.589Z,27.30
2023-03-16T14:45:14.211Z,29.50
2023-03-16T14:47:50.275Z,33.60
2023-03-16T14:50:25.397Z,27.40
2023-03-16T14:52:56.007Z,26.20
2023-03-16T14:55:26.014Z,26.70
2023-03-16T15:00:37.096Z,23.60
2023-03-16T15:03:13.839Z,25.40
2023-03-16T15:05:50.426Z,28.90
2023-03-16T15:08:32.396Z,25.80
2023-03-16T15:11:06.825Z,20.60
2023-03-16T15:13:42.320Z,24.90
2023-03-16T15:16:14.636Z,22.90
2023-03-16T15:18:45.033Z,27.10
2023-03-16T15:21:17.838Z,25.90
2023-03-16T15:23:47.438Z,24.30
2023-03-16T15:26:18.479Z,25.00
2023-03-16T15:28:47.148Z,23.90
2023-03-16T15:31:18.702Z,24.60
2023-03-16T15:33:47.201Z,23.90
2023-03-16T15:36:18.639Z,21.60
2023-03-16T15:38:49.031Z,25.20
2023-03-16T15:41:23.679Z,24.50
2023-03-16T15:44:01.132Z,22.00
2023-03-16T15:49:02.698Z,26.00
2023-03-16T15:51:37.042Z,25.00
2023-03-16T15:54:09.691Z,27.40
2023-03-16T15:59:38.030Z,23.50
2023-03-16T16:02:39.353Z,26.80
2023-03-16T16:05:14.730Z,26.00
2023-03-16T16:07:46.336Z,29.20
2023-03-16T16:10:16.258Z,23.20
2023-03-16T16:12:51.557Z,25.40
2023-03-16T16:15:23.206Z,22.20
2023-03-16T16:18:19.346Z,26.10
2023-03-16T16:20:48.494Z,25.80
2023-03-16T16:23:20.750Z,26.10
2023-03-16T16:25:51.541Z,22.60
2023-03-16T16:30:58.191Z,22.10
2023-03-16T16:33:31.277Z,24.60
2023-03-16T16:36:04.216Z,22.70
2023-03-16T16:41:09.558Z,22.40
2023-03-16T16:44:15.914Z,22.80
2023-03-16T16:49:22.817Z,18.00
2023-03-16T16:51:55.687Z,21.50
2023-03-16T16:54:25.688Z,22.00
2023-03-16T16:56:55.293Z,21.90
2023-03-16T16:59:26.479Z,19.10
2023-03-16T17:01:54.922Z,19.40
2023-03-16T17:04:27.545Z,25.70
2023-03-16T17:07:01.808Z,18.50
2023-03-16T17:09:40.630Z,17.50
2023-03-16T17:12:17.658Z,21.10
2023-03-16T17:14:46.396Z,20.40
2023-03-16T17:17:19.105Z,20.60
2023-03-16T17:19:52.018Z,16.90
2023-03-16T17:22:23.180Z,21.50
2023-03-16T17:24:54.081Z,21.90
2023-03-16T17:27:33.105Z,23.20
2023-03-16T17:30:04.429Z,18.60
2023-03-16T17:32:40.684Z,23.00
2023-03-16T17:35:15.628Z,21.70
2023-03-16T17:37:48.060Z,18.80
2023-03-16T17:40:22.757Z,20.40
2023-03-16T17:42:53.869Z,19.40
2023-03-16T17:45:27.961Z,19.20
2023-03-16T17:47:56.442Z,17.50
2023-03-16T17:50:29.119Z,21.20
2023-03-16T17:52:58.204Z,18.60
2023-03-16T17:55:28.970Z,17.70
2023-03-16T17:58:00.721Z,16.10
2023-03-16T18:00:36.301Z,19.40
2023-03-16T18:03:15.084Z,14.90
2023-03-16T18:05:47.831Z,18.50
2023-03-16T18:08:26.850Z,16.50
2023-03-16T18:11:03.881Z,17.40
2023-03-16T18:13:38.758Z,16.80
2023-03-16T18:16:13.668Z,16.40
2023-03-16T18:18:44.306Z,17.80
2023-03-16T18:21:26.291Z,15.90
2023-03-16T18:23:56.533Z,21.30
2023-03-16T18:26:35.006Z,13.60
2023-03-16T18:29:05.845Z,13.30
2023-03-16T18:31:36.208Z,13.90
2023-03-16T18:34:11.895Z,12.80
2023-03-16T18:36:49.680Z,16.30
2023-03-16T18:39:21.437Z,12.50
2023-03-16T18:41:55.635Z,16.60
2023-03-16T18:44:27.205Z,12.40
2023-03-16T18:46:59.298Z,15.70
2023-03-16T18:49:34.365Z,17.70
2023-03-16T18:52:04.051Z,14.40
2023-03-16T18:54:35.613Z,16.20
2023-03-16T18:57:24.094Z,14.00
2023-03-16T18:59:55.606Z,19.00
2023-03-16T19:02:39.166Z,18.60
2023-03-16T19:05:14.477Z,16.70
2023-03-16T19:07:44.973Z,20.70
2023-03-16T19:10:33.901Z,21.30
2023-03-16T19:14:44.959Z,18.80
2023-03-16T19:17:24.804Z,24.40
2023-03-16T19:19:57.844Z,17.20
2023-03-16T19:22:33.736Z,25.10
2023-03-16T19:25:06.046Z,23.90
2023-03-16T19:27:46.331Z,28.60
2023-03-16T19:30:28.589Z,26.50
2023-03-16T19:39:46.736Z,21.10
2023-03-16T19:42:37.556Z,22.80
2023-03-16T19:45:06.702Z,26.60
2023-03-16T19:47:38.726Z,23.80
2023-03-16T19:50:22.513Z,19.50
2023-03-16T19:52:58.965Z,26.40
2023-03-16T19:55:32.282Z,26.90
2023-03-16T19:58:06.530Z,28.30
2023-03-16T20:00:37.959Z,24.90
2023-03-16T20:03:09.491Z,28.90
2023-03-16T20:05:42.511Z,24.80
2023-03-16T20:08:25.766Z,25.10
2023-03-16T20:11:44.751Z,26.20
2023-03-16T20:14:37.566Z,26.20
2023-03-16T20:17:11.408Z,24.10
2023-03-16T20:19:50.507Z,25.00
2023-03-16T20:22:24.329Z,26.40
2023-03-16T20:24:53.969Z,22.70
2023-03-16T20:27:32.842Z,22.70
2023-03-16T20:30:03.412Z,26.10
2023-03-16T20:32:42.857Z,28.80
2023-03-16T20:35:26.921Z,23.30
2023-03-16T20:40:24.347Z,20.00
2023-03-16T20:42:56.900Z,24.50
2023-03-16T20:45:32.931Z,28.20
2023-03-16T20:48:05.929Z,21.60
2023-03-16T20:50:40.618Z,23.00
2023-03-16T20:53:10.709Z,23.30
2023-03-16T20:55:41.941Z,22.70
2023-03-16T20:58:24.958Z,24.20
2023-03-16T21:01:01.586Z,24.80
2023-03-16T21:03:34.999Z,19.20
2023-03-16T21:06:15.149Z,21.90
2023-03-16T21:08:48.644Z,22.10
2023-03-16T21:11:26.004Z,27.30
2023-03-16T21:14:04.603Z,19.80
2023-03-16T21:16:44.172Z,21.50
2023-03-16T21:19:25.882Z,18.20
2023-03-16T21:21:55.734Z,23.10
2023-03-16T21:24:36.706Z,21.70
2023-03-16T21:27:06.530Z,24.80
2023-03-16T21:29:40.452Z,18.90
2023-03-16T21:32:18.639Z,19.60
2023-03-16T21:34:50.747Z,20.50
2023-03-16T21:37:30.605Z,20.70
2023-03-16T21:40:25.911Z,20.90
2023-03-16T21:42:56.696Z,20.40
2023-03-16T21:45:32.880Z,20.00
2023-03-16T21:48:15.177Z,22.80
2023-03-16T21:50:48.040Z,22.30
2023-03-16T21:53:33.002Z,21.50
2023-03-16T21:56:05.706Z,23.40
2023-03-16T21:58:40.346Z,22.70
2023-03-16T22:01:32.842Z,22.20
2023-03-16T22:04:15.436Z,20.90
2023-03-16T22:07:12.849Z,29.50
2023-03-16T22:09:47.619Z,19.80
2023-03-16T22:12:15.446Z,21.80
2023-03-16T22:14:47.187Z,24.40
2023-03-16T22:17:40.078Z,21.50
2023-03-16T22:20:26.634Z,22.00
2023-03-16T22:23:28.168Z,22.60
2023-03-16T22:25:58.727Z,23.00
2023-03-16T22:28:36.680Z,22.10
2023-03-16T22:31:09.066Z,20.70
2023-03-16T22:33:40.970Z,22.10
2023-03-16T22:36:44.947Z,21.20
2023-03-16T22:39:20.684Z,18.10
2023-03-16T22:41:58.990Z,17.80
2023-03-16T22:44:29.455Z,20.70
2023-03-16T22:47:03.167Z,18.50
2023-03-16T22:49:34.463Z,21.90
2023-03-16T22:52:05.642Z,21.50
2023-03-16T22:54:37.175Z,20.00
2023-03-16T22:57:06.662Z,20.40
2023-03-16T22:59:38.704Z,21.50
2023-03-16T23:02:12.783Z,17.50
2023-03-16T23:04:41.839Z,19.90
2023-03-16T23:07:12.979Z,21.30
2023-03-16T23:09:42.640Z,16.40
2023-03-16T23:12:19.207Z,19.00
2023-03-16T23:14:50.860Z,20.50
2023-03-16T23:17:32.566Z,18.10
2023-03-16T23:20:29.818Z,21.40
2023-03-16T23:23:00.423Z,20.80
2023-03-16T23:25:30.343Z,21.70
2023-03-16T23:28:02.767Z,21.90
2023-03-16T23:30:31.293Z,20.90
2023-03-16T23:33:00.159Z,19.20
2023-03-16T23:35:30.527Z,19.20
2023-03-16T23:40:41.942Z,19.30
2023-03-16T23:43:10.910Z,18.50
2023-03-16T23:45:46.042Z,16.80
2023-03-16T23:48:20.117Z,17.50
2023-03-16T23:50:48.806Z,16.90
2023-03-16T23:53:18.209Z,20.50
2023-03-16T23:55:57.471Z,16.50
2023-03-16T23:58:27.115Z,16.00
